createdAt,value
2018-04-25T00:00:29.659Z,8.80
2018-04-25T00:02:57.188Z,8.80
2018-04-25T00:05:24.700Z,8.80
2018-04-25T00:07:53.107Z,8.60
2018-04-25T00:10:20.665Z,8.60
2018-04-25T00:12:48.171Z,8.60
2018-04-25T00:15:16.474Z,8.60
2018-04-25T00:17:44.747Z,8.60
2018-04-25T00:20:13.056Z,8.50
2018-04-25T00:22:40.565Z,8.50
2018-04-25T00:25:08.889Z,8.50
2018-04-25T00:27:36.400Z,8.50
2018-04-25T00:30:03.942Z,8.50
2018-04-25T00:32:31.466Z,8.50
2018-04-25T00:34:59.001Z,8.50
2018-04-25T00:37:27.276Z,8.50
2018-04-25T00:39:55.574Z,8.50
2018-04-25T00:42:23.083Z,8.50
2018-04-25T00:44:50.710Z,8.60
2018-04-25T00:47:18.224Z,8.60
2018-04-25T00:49:46.529Z,8.70
2018-04-25T00:52:14.112Z,8.70
2018-04-25T00:54:41.668Z,8.70
2018-04-25T00:57:09.219Z,8.80
2018-04-25T00:59:36.764Z,8.70
2018-04-25T01:02:04.348Z,8.60
2018-04-25T01:04:31.868Z,8.40
2018-04-25T01:07:00.160Z,8.30
2018-04-25T01:09:27.676Z,8.20
2018-04-25T01:11:55.320Z,8.20
2018-04-25T01:14:22.744Z,8.30
2018-04-25T01:16:50.277Z,8.30
2018-04-25T01:19:18.562Z,8.30
2018-04-25T01:21:47.672Z,8.30
2018-04-25T01:24:15.187Z,8.30
2018-04-25T01:26:42.726Z,8.30
2018-04-25T01:29:10.240Z,8.30
2018-04-25T01:31:47.107Z,8.30
2018-04-25T01:34:19.017Z,8.30
2018-04-25T01:39:41.775Z,8.30
2018-04-25T01:42:28.828Z,8.30
2018-04-25T01:44:58.301Z,8.30
2018-04-25T01:47:34.884Z,8.40
2018-04-25T01:53:11.529Z,8.10
2018-04-25T01:55:51.732Z,7.80
2018-04-25T01:58:31.104Z,7.90
2018-04-25T02:01:10.613Z,7.90
2018-04-25T02:03:59.702Z,7.90
2018-04-25T02:06:27.217Z,7.90
2018-04-25T02:08:54.756Z,7.90
2018-04-25T02:11:23.037Z,7.80
2018-04-25T02:13:51.365Z,7.80
2018-04-25T02:16:18.904Z,7.80
2018-04-25T02:18:46.437Z,7.80
2018-04-25T02:21:14.716Z,7.70
2018-04-25T02:23:43.121Z,7.80
2018-04-25T02:26:10.640Z,7.80
2018-04-25T02:28:38.940Z,7.90
2018-04-25T02:31:06.460Z,7.90
2018-04-25T02:33:33.992Z,8.00
2018-04-25T02:36:01.541Z,7.90
2018-04-25T02:38:29.079Z,7.70
2018-04-25T02:40:56.720Z,7.60
2018-04-25T02:43:25.000Z,7.60
2018-04-25T02:45:53.300Z,7.60
2018-04-25T02:48:20.815Z,7.60
2018-04-25T02:50:48.351Z,7.70
2018-04-25T02:53:15.897Z,7.80
2018-04-25T02:55:43.430Z,7.90
2018-04-25T02:58:10.943Z,7.90
2018-04-25T03:00:38.487Z,7.90
2018-04-25T03:03:06.037Z,7.70
2018-04-25T03:05:33.573Z,7.70
2018-04-25T03:08:01.091Z,7.70
2018-04-25T03:10:28.643Z,7.70
2018-04-25T03:12:56.166Z,7.80
2018-04-25T03:15:23.695Z,7.90
2018-04-25T03:17:52.011Z,7.80
2018-04-25T03:20:19.544Z,7.80
2018-04-25T03:22:47.059Z,7.70
2018-04-25T03:25:14.596Z,7.60
2018-04-25T03:27:42.103Z,7.60
2018-04-25T03:30:10.380Z,7.60
2018-04-25T03:32:37.908Z,7.60
2018-04-25T03:35:05.414Z,7.60
2018-04-25T03:37:33.713Z,7.60
2018-04-25T03:40:01.233Z,7.60
2018-04-25T03:42:28.776Z,7.50
2018-04-25T03:44:56.292Z,7.50
2018-04-25T03:47:23.826Z,7.50
2018-04-25T03:49:52.105Z,7.60
2018-04-25T03:52:20.403Z,7.70
2018-04-25T03:54:47.926Z,7.60
2018-04-25T03:57:16.960Z,7.50
2018-04-25T03:59:44.477Z,7.50
2018-04-25T04:02:12.089Z,7.40
2018-04-25T04:04:39.657Z,7.50
2018-04-25T04:07:07.187Z,7.40
2018-04-25T04:09:35.468Z,7.40
2018-04-25T04:12:03.768Z,7.40
2018-04-25T04:14:31.329Z,7.40
2018-04-25T04:16:58.886Z,7.40
2018-04-25T04:19:26.454Z,7.40
2018-04-25T04:21:54.113Z,7.50
2018-04-25T04:24:21.628Z,7.60
2018-04-25T04:26:49.908Z,7.80
2018-04-25T04:29:18.213Z,7.80
2018-04-25T04:31:45.731Z,7.80
2018-04-25T04:34:14.032Z,7.80
2018-04-25T04:36:42.316Z,7.80
2018-04-25T04:39:10.615Z,7.90
2018-04-25T04:41:38.181Z,7.90
2018-04-25T04:44:05.747Z,8.30
2018-04-25T04:46:33.305Z,9.10
2018-04-25T04:49:00.836Z,10.10
2018-04-25T04:51:29.136Z,12.10
2018-04-25T04:53:56.672Z,12.10
2018-04-25T04:56:24.949Z,14.00
2018-04-25T04:58:53.249Z,13.70
2018-04-25T05:01:20.819Z,13.70
2018-04-25T05:03:48.362Z,13.90
2018-04-25T05:06:15.876Z,14.90
2018-04-25T05:08:43.504Z,15.80
2018-04-25T05:11:10.961Z,16.60
2018-04-25T05:13:38.491Z,17.30
2018-04-25T05:16:06.020Z,18.00
2018-04-25T05:18:33.556Z,18.10
2018-04-25T05:21:01.071Z,17.50
2018-04-25T05:23:29.371Z,17.70
2018-04-25T05:25:56.882Z,17.70
2018-04-25T05:28:24.415Z,18.40
2018-04-25T05:30:51.937Z,19.20
2018-04-25T05:33:19.454Z,20.10
2018-04-25T05:35:46.985Z,20.70
2018-04-25T05:38:14.493Z,21.40
2018-04-25T05:40:42.796Z,22.50
2018-04-25T05:43:10.308Z,22.40
2018-04-25T05:45:37.840Z,22.90
2018-04-25T05:48:05.353Z,23.30
2018-04-25T05:50:33.651Z,23.40
2018-04-25T05:53:01.167Z,23.30
2018-04-25T05:55:28.700Z,23.40
2018-04-25T05:57:56.307Z,23.50
2018-04-25T06:00:23.784Z,23.60
2018-04-25T06:02:51.296Z,24.10
2018-04-25T06:05:18.840Z,24.50
2018-04-25T06:07:46.352Z,24.80
2018-04-25T06:10:14.647Z,24.60
2018-04-25T06:12:42.160Z,24.60
2018-04-25T06:15:09.696Z,24.40
2018-04-25T06:17:37.212Z,24.80
2018-04-25T06:20:05.620Z,24.30
2018-04-25T06:22:33.136Z,24.20
2018-04-25T06:25:01.433Z,24.70
2018-04-25T06:27:28.953Z,24.70
2018-04-25T06:29:58.000Z,24.90
2018-04-25T06:32:25.512Z,24.90
2018-04-25T06:34:53.029Z,25.20
2018-04-25T06:37:20.568Z,25.20
2018-04-25T06:39:48.148Z,25.60
2018-04-25T06:42:15.681Z,26.10
2018-04-25T06:44:44.041Z,26.80
2018-04-25T06:47:11.544Z,26.80
2018-04-25T06:49:39.065Z,27.20
2018-04-25T06:52:07.364Z,27.00
2018-04-25T06:54:34.880Z,27.00
2018-04-25T06:57:02.417Z,26.60
2018-04-25T06:59:29.964Z,26.60
2018-04-25T07:01:57.500Z,26.70
2018-04-25T07:04:25.016Z,25.80
2018-04-25T07:06:52.556Z,24.60
2018-04-25T07:09:20.072Z,22.90
2018-04-25T07:11:48.443Z,20.70
2018-04-25T07:14:16.732Z,19.80
2018-04-25T07:16:45.129Z,19.40
2018-04-25T07:19:12.697Z,19.40
2018-04-25T07:21:40.256Z,19.50
2018-04-25T07:24:07.820Z,20.30
2018-04-25T07:26:35.335Z,21.30
2018-04-25T07:29:02.868Z,22.10
2018-04-25T07:31:30.380Z,22.50
2018-04-25T07:33:57.912Z,22.30
2018-04-25T07:36:25.520Z,22.20
2018-04-25T07:38:53.085Z,22.60
2018-04-25T07:41:20.603Z,22.80
2018-04-25T07:43:48.912Z,22.20
2018-04-25T07:46:16.428Z,22.20
2018-04-25T07:48:44.036Z,22.40
2018-04-25T07:51:11.558Z,22.50
2018-04-25T07:53:39.168Z,22.50
2018-04-25T07:56:06.688Z,22.10
2018-04-25T07:58:34.984Z,20.80
2018-04-25T08:01:02.501Z,20.80
2018-04-25T08:03:30.035Z,20.20
2018-04-25T08:05:57.623Z,19.80
2018-04-25T08:08:25.105Z,19.30
2018-04-25T08:10:53.383Z,18.60
2018-04-25T08:13:33.643Z,18.50
2018-04-25T08:16:13.814Z,18.50
2018-04-25T08:21:41.728Z,18.20
2018-04-25T08:24:09.262Z,18.20
2018-04-25T08:26:36.838Z,18.30
2018-04-25T08:29:04.367Z,18.20
2018-04-25T08:31:32.682Z,18.40
2018-04-25T08:34:00.219Z,18.40
2018-04-25T08:36:27.739Z,18.70
2018-04-25T08:38:55.362Z,19.40
2018-04-25T08:41:22.872Z,19.20
2018-04-25T08:43:50.409Z,19.30
2018-04-25T08:46:17.924Z,19.00
2018-04-25T08:48:45.444Z,18.50
2018-04-25T08:51:13.749Z,17.80
2018-04-25T08:53:42.032Z,17.60
2018-04-25T08:56:10.328Z,17.50
2018-04-25T08:58:37.845Z,17.50
2018-04-25T09:01:05.447Z,17.50
2018-04-25T09:03:32.955Z,17.90
2018-04-25T09:06:00.491Z,18.00
2018-04-25T09:08:28.008Z,17.90
2018-04-25T09:10:55.589Z,17.70
2018-04-25T09:13:23.105Z,17.50
2018-04-25T09:15:50.713Z,17.30
2018-04-25T09:18:18.229Z,17.00
2018-04-25T09:20:46.532Z,16.70
2018-04-25T09:23:14.044Z,16.70
2018-04-25T09:25:41.576Z,16.70
2018-04-25T09:28:09.126Z,16.70
2018-04-25T09:30:36.675Z,16.90
2018-04-25T09:33:04.196Z,17.00
2018-04-25T09:35:31.732Z,17.10
2018-04-25T09:37:59.248Z,17.20
2018-04-25T09:40:26.797Z,17.40
2018-04-25T09:42:55.076Z,17.50
2018-04-25T09:45:23.358Z,17.50
2018-04-25T09:47:51.768Z,17.30
2018-04-25T09:50:19.287Z,17.30
2018-04-25T09:52:47.590Z,16.90
2018-04-25T09:55:15.104Z,16.90
2018-04-25T09:57:42.810Z,16.80
2018-04-25T10:00:10.255Z,16.70
2018-04-25T10:02:38.557Z,16.60
2018-04-25T10:05:06.069Z,16.60
2018-04-25T10:07:33.600Z,16.70
2018-04-25T10:10:01.121Z,16.80
2018-04-25T10:12:28.662Z,16.80
2018-04-25T10:14:56.945Z,16.80
2018-04-25T10:17:25.291Z,16.90
2018-04-25T10:19:52.784Z,16.90
2018-04-25T10:22:21.195Z,17.20
2018-04-25T10:24:48.711Z,17.20
2018-04-25T10:27:17.011Z,18.80
2018-04-25T10:29:44.589Z,18.80
2018-04-25T10:32:12.128Z,19.20
2018-04-25T10:34:39.644Z,19.20
2018-04-25T10:37:07.176Z,19.50
2018-04-25T10:39:34.687Z,20.00
2018-04-25T10:42:02.225Z,20.10
2018-04-25T10:44:29.741Z,20.10
2018-04-25T10:46:57.291Z,19.80
2018-04-25T10:49:24.807Z,20.20
2018-04-25T10:51:52.315Z,20.30
2018-04-25T10:54:19.847Z,20.80
2018-04-25T10:56:48.127Z,21.20
2018-04-25T10:59:16.424Z,21.20
2018-04-25T11:01:43.943Z,21.20
2018-04-25T11:04:11.560Z,21.50
2018-04-25T11:06:39.080Z,21.70
2018-04-25T11:09:07.396Z,20.20
2018-04-25T11:11:34.959Z,20.20
2018-04-25T11:14:02.488Z,19.40
2018-04-25T11:16:30.767Z,18.40
2018-04-25T11:18:59.076Z,18.10
2018-04-25T11:21:26.633Z,18.10
2018-04-25T11:23:54.164Z,18.00
2018-04-25T11:26:22.448Z,17.80
2018-04-25T11:28:50.768Z,17.60
2018-04-25T11:31:18.276Z,17.60
2018-04-25T11:33:46.585Z,17.10
2018-04-25T11:36:14.120Z,17.10
2018-04-25T11:38:42.421Z,17.00
2018-04-25T11:41:09.952Z,17.00
2018-04-25T11:43:38.232Z,17.00
2018-04-25T11:46:06.532Z,17.00
2018-04-25T11:48:34.051Z,17.00
2018-04-25T11:51:01.585Z,17.00
2018-04-25T11:53:29.099Z,17.00
2018-04-25T11:55:56.636Z,16.90
2018-04-25T11:58:24.931Z,16.80
2018-04-25T12:00:52.471Z,16.80
2018-04-25T12:03:19.985Z,16.80
2018-04-25T12:05:47.538Z,16.70
2018-04-25T12:08:15.052Z,16.80
2018-04-25T12:10:43.347Z,17.10
2018-04-25T12:13:11.634Z,17.20
2018-04-25T12:15:39.208Z,17.10
2018-04-25T12:18:06.738Z,17.30
2018-04-25T12:20:35.040Z,17.30
2018-04-25T12:23:02.560Z,17.30
2018-04-25T12:25:30.887Z,17.00
2018-04-25T12:27:58.444Z,17.00
2018-04-25T12:30:25.967Z,16.90
2018-04-25T12:32:54.263Z,17.00
2018-04-25T12:35:21.795Z,16.90
2018-04-25T12:37:50.121Z,17.20
2018-04-25T12:40:17.688Z,17.20
2018-04-25T12:42:45.229Z,17.40
2018-04-25T12:45:12.751Z,17.50
2018-04-25T12:47:40.284Z,17.40
2018-04-25T12:50:07.800Z,17.40
2018-04-25T12:52:35.381Z,17.40
2018-04-25T12:55:02.899Z,17.30
2018-04-25T12:57:31.211Z,17.40
2018-04-25T12:59:58.777Z,17.40
2018-04-25T13:02:26.332Z,17.70
2018-04-25T13:04:53.905Z,17.90
2018-04-25T13:07:21.440Z,18.20
2018-04-25T13:09:48.952Z,18.80
2018-04-25T13:12:16.489Z,18.90
2018-04-25T13:14:44.038Z,18.60
2018-04-25T13:17:11.592Z,18.60
2018-04-25T13:19:39.107Z,18.20
2018-04-25T13:22:06.724Z,18.10
2018-04-25T13:24:34.277Z,17.80
2018-04-25T13:27:01.784Z,17.90
2018-04-25T13:29:29.324Z,18.00
2018-04-25T13:31:56.860Z,18.40
2018-04-25T13:34:24.415Z,18.80
2018-04-25T13:36:51.932Z,18.70
2018-04-25T13:39:19.473Z,18.40
2018-04-25T13:41:46.982Z,18.10
2018-04-25T13:44:14.520Z,17.60
2018-04-25T13:46:42.824Z,16.80
2018-04-25T13:49:10.342Z,16.80
2018-04-25T13:51:37.953Z,16.60
2018-04-25T13:54:05.484Z,16.50
2018-04-25T13:56:33.792Z,15.80
2018-04-25T13:59:01.327Z,15.80
2018-04-25T14:01:29.607Z,15.40
2018-04-25T14:03:57.908Z,15.30
2018-04-25T14:06:25.420Z,15.30
2018-04-25T14:08:52.948Z,15.20
2018-04-25T14:11:20.467Z,15.20
2018-04-25T14:13:48.041Z,15.40
2018-04-25T14:16:15.572Z,15.50
2018-04-25T14:18:43.852Z,15.70
2018-04-25T14:21:12.167Z,15.80
2018-04-25T14:23:39.721Z,15.80
2018-04-25T14:26:07.254Z,16.00
2018-04-25T14:28:35.534Z,16.50
2018-04-25T14:31:03.941Z,16.60
2018-04-25T14:33:31.499Z,16.60
2018-04-25T14:35:59.768Z,16.60
2018-04-25T14:38:27.331Z,16.60
2018-04-25T14:40:54.900Z,17.10
2018-04-25T14:43:22.466Z,17.50
2018-04-25T14:45:49.995Z,17.90
2018-04-25T14:48:18.339Z,17.60
2018-04-25T14:50:45.826Z,17.60
2018-04-25T14:53:14.103Z,17.10
2018-04-25T14:55:42.396Z,16.70
2018-04-25T14:58:09.973Z,16.70
2018-04-25T15:00:37.532Z,16.50
2018-04-25T15:03:05.044Z,16.30
2018-04-25T15:05:32.583Z,16.10
2018-04-25T15:08:00.104Z,15.70
2018-04-25T15:10:27.671Z,14.90
2018-04-25T15:12:55.203Z,14.40
2018-04-25T15:15:23.500Z,14.20
2018-04-25T15:17:51.020Z,14.20
2018-04-25T15:20:18.633Z,14.40
2018-04-25T15:22:46.159Z,14.60
2018-04-25T15:25:14.442Z,14.70
2018-04-25T15:27:41.993Z,14.70
2018-04-25T15:30:10.310Z,15.40
2018-04-25T15:32:37.845Z,15.40
2018-04-25T15:35:05.360Z,15.80
2018-04-25T15:37:32.891Z,16.20
2018-04-25T15:40:00.404Z,16.40
2018-04-25T15:42:28.706Z,16.80
2018-04-25T15:44:56.223Z,16.80
2018-04-25T15:47:24.564Z,16.70
2018-04-25T15:49:52.120Z,16.70
2018-04-25T15:52:19.670Z,16.50
2018-04-25T15:54:47.191Z,16.40
2018-04-25T15:57:14.720Z,16.40
2018-04-25T15:59:42.248Z,16.40
2018-04-25T16:02:09.760Z,16.30
2018-04-25T16:04:37.292Z,16.30
2018-04-25T16:07:04.843Z,16.10
2018-04-25T16:09:32.371Z,16.00
2018-04-25T16:12:00.670Z,15.90
2018-04-25T16:14:28.216Z,15.80
2018-04-25T16:16:55.796Z,15.80
2018-04-25T16:19:23.332Z,15.70
2018-04-25T16:21:51.646Z,15.50
2018-04-25T16:24:19.185Z,15.50
2018-04-25T16:26:46.703Z,15.30
2018-04-25T16:29:14.326Z,15.20
2018-04-25T16:31:41.837Z,15.10
2018-04-25T16:34:09.440Z,15.00
2018-04-25T16:36:36.966Z,14.90
2018-04-25T16:39:05.267Z,14.70
2018-04-25T16:41:32.779Z,14.70
2018-04-25T16:44:00.400Z,14.60
2018-04-25T16:46:27.915Z,14.50
2018-04-25T16:48:55.454Z,14.40
2018-04-25T16:51:22.970Z,14.40
2018-04-25T16:53:50.546Z,14.40
2018-04-25T16:56:18.096Z,14.40
2018-04-25T16:58:45.639Z,14.40
2018-04-25T17:01:13.156Z,14.40
2018-04-25T17:03:41.440Z,14.30
2018-04-25T17:06:08.976Z,14.30
2018-04-25T17:08:36.517Z,14.20
2018-04-25T17:11:04.056Z,14.10
2018-04-25T17:13:31.897Z,14.00
2018-04-25T17:15:59.433Z,14.00
2018-04-25T17:18:28.287Z,13.80
2018-04-25T17:20:55.953Z,13.70
2018-04-25T17:23:23.512Z,13.50
2018-04-25T17:25:51.079Z,13.30
2018-04-25T17:28:18.587Z,13.20
2018-04-25T17:30:46.120Z,13.20
2018-04-25T17:33:13.632Z,13.10
2018-04-25T17:35:41.928Z,13.00
2018-04-25T17:38:09.492Z,12.90
2018-04-25T17:40:37.049Z,12.90
2018-04-25T17:43:04.565Z,12.90
2018-04-25T17:45:32.104Z,12.90
2018-04-25T17:47:59.631Z,12.90
2018-04-25T17:50:27.167Z,12.90
2018-04-25T17:52:55.448Z,13.00
2018-04-25T17:55:22.987Z,12.90
2018-04-25T17:57:51.313Z,12.90
2018-04-25T18:00:18.843Z,12.90
2018-04-25T18:02:46.384Z,12.90
2018-04-25T18:05:14.659Z,12.80
2018-04-25T18:07:42.955Z,12.90
2018-04-25T18:10:11.257Z,12.90
2018-04-25T18:12:38.798Z,12.90
2018-04-25T18:15:06.317Z,12.90
2018-04-25T18:17:35.366Z,12.80
2018-04-25T18:20:02.879Z,12.80
2018-04-25T18:22:30.407Z,12.80
2018-04-25T18:24:57.915Z,12.70
2018-04-25T18:27:26.229Z,12.60
2018-04-25T18:29:53.789Z,12.60
2018-04-25T18:32:21.320Z,12.50
2018-04-25T18:34:49.603Z,12.30
2018-04-25T18:37:17.206Z,12.30
2018-04-25T18:39:44.747Z,12.30
2018-04-25T18:42:12.280Z,12.30
2018-04-25T18:44:40.564Z,12.10
2018-04-25T18:47:08.969Z,12.10
2018-04-25T18:49:36.527Z,12.10
2018-04-25T18:52:04.064Z,12.10
2018-04-25T18:54:31.572Z,12.10
2018-04-25T18:56:59.130Z,12.20
2018-04-25T18:59:26.645Z,12.30
2018-04-25T19:01:54.166Z,12.30
2018-04-25T19:04:21.705Z,12.40
2018-04-25T19:06:49.220Z,12.30
2018-04-25T19:09:17.518Z,12.30
2018-04-25T19:11:45.036Z,12.30
2018-04-25T19:14:12.646Z,12.30
2018-04-25T19:16:40.160Z,12.30
2018-04-25T19:19:08.476Z,12.20
2018-04-25T19:21:35.990Z,12.20
2018-04-25T19:24:04.292Z,12.20
2018-04-25T19:26:31.808Z,12.20
2018-04-25T19:28:59.344Z,12.10
2018-04-25T19:31:26.860Z,12.10
2018-04-25T19:33:55.172Z,12.00
2018-04-25T19:36:22.688Z,12.00
2018-04-25T19:38:50.987Z,12.00
2018-04-25T19:41:18.504Z,11.90
2018-04-25T19:43:46.037Z,11.90
2018-04-25T19:46:13.554Z,11.90
2018-04-25T19:48:41.861Z,11.80
2018-04-25T19:51:09.376Z,11.80
2018-04-25T19:53:36.887Z,11.80
2018-04-25T19:56:04.528Z,11.70
2018-04-25T19:58:32.110Z,11.70
2018-04-25T20:00:59.666Z,11.70
2018-04-25T20:03:27.191Z,11.60
2018-04-25T20:05:55.485Z,11.50
2018-04-25T20:08:23.117Z,11.50
2018-04-25T20:10:50.615Z,11.50
2018-04-25T20:13:18.131Z,11.50
2018-04-25T20:15:45.664Z,11.40
2018-04-25T20:18:13.173Z,11.30
2018-04-25T20:20:41.480Z,11.30
2018-04-25T20:23:09.040Z,11.30
2018-04-25T20:25:36.572Z,11.30
2018-04-25T20:28:04.852Z,11.40
2018-04-25T20:30:33.156Z,11.40
2018-04-25T20:33:00.716Z,11.30
2018-04-25T20:35:28.253Z,11.40
2018-04-25T20:37:56.559Z,11.40
2018-04-25T20:40:24.091Z,11.40
2018-04-25T20:42:52.372Z,11.40
2018-04-25T20:45:19.904Z,11.40
2018-04-25T20:47:47.423Z,11.50
2018-04-25T20:50:15.019Z,11.50
2018-04-25T20:52:42.532Z,11.50
2018-04-25T20:55:10.089Z,11.50
2018-04-25T20:57:37.604Z,11.50
2018-04-25T21:00:05.119Z,11.40
2018-04-25T21:02:32.759Z,11.40
2018-04-25T21:05:00.188Z,11.40
2018-04-25T21:07:28.495Z,11.40
2018-04-25T21:09:56.014Z,11.30
2018-04-25T21:12:24.330Z,11.40
2018-04-25T21:14:51.910Z,11.30
2018-04-25T21:17:19.462Z,11.30
2018-04-25T21:19:46.973Z,11.20
2018-04-25T21:22:14.508Z,11.20
2018-04-25T21:24:42.032Z,11.20
2018-04-25T21:27:09.568Z,11.20
2018-04-25T21:29:37.843Z,11.20
2018-04-25T21:32:06.137Z,11.20
2018-04-25T21:34:33.659Z,11.20
2018-04-25T21:37:01.996Z,11.20
2018-04-25T21:39:29.512Z,11.20
2018-04-25T21:41:57.820Z,11.40
2018-04-25T21:44:25.336Z,11.40
2018-04-25T21:46:53.642Z,11.30
2018-04-25T21:49:21.920Z,11.30
2018-04-25T21:51:50.224Z,11.30
2018-04-25T21:54:17.758Z,11.20
2018-04-25T21:56:46.036Z,11.30
2018-04-25T21:59:14.339Z,11.30
2018-04-25T22:01:41.857Z,11.30
2018-04-25T22:04:10.157Z,11.30
2018-04-25T22:06:37.747Z,11.30
2018-04-25T22:09:05.285Z,11.30
2018-04-25T22:11:32.863Z,11.20
2018-04-25T22:14:00.398Z,11.20
2018-04-25T22:16:27.989Z,11.20
2018-04-25T22:18:55.523Z,11.20
2018-04-25T22:21:23.050Z,11.30
2018-04-25T22:23:50.587Z,11.30
2018-04-25T22:26:18.096Z,11.20
2018-04-25T22:28:46.387Z,11.20
2018-04-25T22:31:13.957Z,11.20
2018-04-25T22:33:41.494Z,11.20
2018-04-25T22:36:09.016Z,11.20
2018-04-25T22:38:36.553Z,11.20
2018-04-25T22:41:04.076Z,11.20
2018-04-25T22:43:31.609Z,11.20
2018-04-25T22:45:59.133Z,11.20
2018-04-25T22:48:26.759Z,11.20
2018-04-25T22:50:54.281Z,11.20
2018-04-25T22:53:23.320Z,11.10
2018-04-25T22:55:50.836Z,11.10
2018-04-25T22:58:18.373Z,11.10
2018-04-25T23:00:45.886Z,11.00
2018-04-25T23:03:13.419Z,11.00
2018-04-25T23:05:40.932Z,10.90
2018-04-25T23:08:08.482Z,10.90
2018-04-25T23:10:36.005Z,10.90
2018-04-25T23:13:04.328Z,10.80
2018-04-25T23:15:31.840Z,10.80
2018-04-25T23:17:59.355Z,10.70
2018-04-25T23:20:26.904Z,10.70
2018-04-25T23:22:54.418Z,10.70
2018-04-25T23:25:22.719Z,10.60
2018-04-25T23:27:50.310Z,10.50
2018-04-25T23:30:17.847Z,10.50
2018-04-25T23:32:45.415Z,10.50
2018-04-25T23:35:12.956Z,10.40
2018-04-25T23:37:41.240Z,10.30
2018-04-25T23:40:08.771Z,10.30
2018-04-25T23:42:36.289Z,10.30
2018-04-25T23:45:03.841Z,10.20
2018-04-25T23:47:31.398Z,10.20
2018-04-25T23:49:58.937Z,10.20
2018-04-25T23:52:26.457Z,10.20
2018-04-25T23:54:53.993Z,10.10
2018-04-25T23:57:21.532Z,10.10
2018-04-25T23:59:49.068Z,10.10
